Time;durP1;ratioP1;P1;durP2;ratioP2;P2;SDS_P1;SDS_P2;PMS_P1;PMS_P2;Temp;Humidity;BMP_temperature;BMP_pressure;BME280_temperature;BME280_humidity;BME280_pressure;Samples;Min_cycle;Max_cycle;Signal;HPM_P1;HPM_P2
2024/01/26 00:01:38;;;;;;;19.67;6.97;;;9.00;99.90;;;;;;4962950;28;20468;-70
2024/01/26 00:04:04;;;;;;;19.77;7.75;;;9.00;99.90;;;;;;4959144;28;20670;-70
2024/01/26 00:06:30;;;;;;;17.90;6.75;;;8.90;99.90;;;;;;4945610;28;20153;-70
2024/01/26 00:08:56;;;;;;;23.42;8.60;;;8.90;99.90;;;;;;4961015;28;20152;-70
2024/01/26 00:11:23;;;;;;;15.35;6.78;;;8.90;99.90;;;;;;4952571;28;20106;-70
2024/01/26 00:13:49;;;;;;;18.38;7.70;;;8.90;99.90;;;;;;4966074;28;20031;-70
2024/01/26 00:16:14;;;;;;;16.38;6.78;;;8.90;99.90;;;;;;4961089;28;20042;-70
2024/01/26 00:18:40;;;;;;;17.50;7.78;;;8.90;99.90;;;;;;4961833;28;20483;-71
2024/01/26 00:21:12;;;;;;;17.05;7.75;;;8.90;99.90;;;;;;4955110;28;20023;-71
2024/01/26 00:23:41;;;;;;;18.20;7.60;;;8.90;99.90;;;;;;4958146;28;20037;-70
2024/01/26 00:26:07;;;;;;;26.58;7.55;;;8.90;99.90;;;;;;4960258;28;20448;-71
2024/01/26 00:28:33;;;;;;;16.85;7.07;;;8.80;99.90;;;;;;4959829;28;20061;-70
2024/01/26 00:30:59;;;;;;;17.92;8.40;;;8.80;99.90;;;;;;4966802;28;20033;-70
2024/01/26 00:33:28;;;;;;;20.15;6.75;;;8.80;99.90;;;;;;4960569;28;20396;-71
2024/01/26 00:35:54;;;;;;;18.67;7.03;;;8.80;99.90;;;;;;4950109;28;20034;-71
2024/01/26 00:38:21;;;;;;;19.38;7.38;;;8.80;99.90;;;;;;4956481;28;20032;-71
2024/01/26 00:40:47;;;;;;;14.45;7.50;;;8.80;99.90;;;;;;4958822;28;20062;-70
2024/01/26 00:43:13;;;;;;;18.15;7.65;;;8.70;99.90;;;;;;4958639;28;20053;-70
2024/01/26 00:45:39;;;;;;;15.73;8.00;;;8.70;99.90;;;;;;4960254;28;20530;-70
2024/01/26 00:48:06;;;;;;;18.17;7.97;;;8.70;99.90;;;;;;4959246;28;20043;-70
2024/01/26 00:50:31;;;;;;;20.55;8.75;;;8.70;99.90;;;;;;4957094;28;20035;-70
2024/01/26 00:52:57;;;;;;;17.83;8.13;;;8.70;99.90;;;;;;4957733;28;20035;-70
2024/01/26 00:55:23;;;;;;;17.27;8.98;;;8.70;99.90;;;;;;4961585;28;20077;-70
2024/01/26 00:57:51;;;;;;;18.50;8.23;;;8.70;99.90;;;;;;4949470;28;20081;-70
2024/01/26 01:00:17;;;;;;;17.02;7.18;;;8.70;99.90;;;;;;4955207;28;20035;-70
2024/01/26 01:02:43;;;;;;;18.15;7.30;;;8.70;99.90;;;;;;4962040;28;20031;-70
2024/01/26 01:05:09;;;;;;;24.33;9.25;;;8.70;99.90;;;;;;4958261;28;20027;-70
2024/01/26 01:07:35;;;;;;;20.77;8.00;;;8.70;99.90;;;;;;4962002;28;20034;-70
2024/01/26 01:10:01;;;;;;;25.95;9.50;;;8.70;99.90;;;;;;4959024;28;20031;-70
2024/01/26 01:12:26;;;;;;;17.27;9.32;;;8.70;99.90;;;;;;4964495;28;20027;-70
2024/01/26 01:14:52;;;;;;;17.15;7.20;;;8.70;99.90;;;;;;4970456;28;20035;-70
2024/01/26 01:17:20;;;;;;;21.67;9.60;;;8.70;99.90;;;;;;4957184;28;20387;-70
2024/01/26 01:19:46;;;;;;;20.48;8.00;;;8.70;99.90;;;;;;4957368;28;20060;-70
2024/01/26 01:22:12;;;;;;;20.83;7.75;;;8.70;99.90;;;;;;4958723;28;20083;-70
2024/01/26 01:24:38;;;;;;;23.75;8.93;;;8.70;99.90;;;;;;4956750;28;20109;-70
2024/01/26 01:27:04;;;;;;;25.45;9.15;;;8.70;99.90;;;;;;4958362;28;20110;-70
2024/01/26 01:29:30;;;;;;;16.48;7.45;;;8.80;99.90;;;;;;4960992;28;20467;-70
2024/01/26 01:31:55;;;;;;;18.42;6.88;;;8.70;99.90;;;;;;4991214;28;20039;-70
2024/01/26 01:34:23;;;;;;;31.83;8.70;;;8.70;99.90;;;;;;4960137;28;20024;-70
2024/01/26 01:36:49;;;;;;;22.58;8.13;;;8.70;99.90;;;;;;4955408;28;20039;-70
2024/01/26 01:39:14;;;;;;;17.13;8.18;;;8.70;99.90;;;;;;4972217;28;20027;-70
2024/01/26 01:41:49;;;;;;;19.25;7.22;;;8.70;99.90;;;;;;4943572;28;20034;-70
2024/01/26 01:44:15;;;;;;;15.65;6.65;;;8.70;99.90;;;;;;4962474;28;20078;-70
2024/01/26 01:46:41;;;;;;;19.45;7.50;;;8.60;99.90;;;;;;4959812;28;20032;-70
2024/01/26 01:49:07;;;;;;;19.17;8.30;;;8.70;99.90;;;;;;4957213;28;20038;-70
2024/01/26 01:51:35;;;;;;;24.35;8.65;;;8.60;99.90;;;;;;4962925;28;20027;-71
2024/01/26 01:54:01;;;;;;;25.92;9.27;;;8.60;99.90;;;;;;4954340;28;20050;-71
2024/01/26 01:56:28;;;;;;;20.88;8.75;;;8.70;99.90;;;;;;4961659;28;20027;-71
2024/01/26 01:58:58;;;;;;;17.85;7.47;;;8.60;99.90;;;;;;4960155;28;20043;-70
2024/01/26 02:01:26;;;;;;;20.95;8.18;;;8.60;99.90;;;;;;4959245;28;20039;-70
2024/01/26 02:03:52;;;;;;;19.35;9.05;;;8.70;99.90;;;;;;4958390;28;20053;-70
2024/01/26 02:06:18;;;;;;;18.40;8.50;;;8.70;99.90;;;;;;4960996;28;20559;-71
2024/01/26 02:08:44;;;;;;;24.33;9.73;;;8.70;99.90;;;;;;4960343;28;20454;-71
2024/01/26 02:11:09;;;;;;;22.25;7.93;;;8.70;99.90;;;;;;4957044;28;20463;-71
2024/01/26 02:13:35;;;;;;;18.05;8.45;;;8.70;99.90;;;;;;4958786;28;20031;-71
2024/01/26 02:16:01;;;;;;;29.88;9.57;;;8.70;99.90;;;;;;4960690;28;20126;-70
2024/01/26 02:18:26;;;;;;;20.98;9.00;;;8.70;99.90;;;;;;4960125;28;20443;-70
2024/01/26 02:20:52;;;;;;;21.55;9.27;;;8.70;99.90;;;;;;4959187;28;20039;-71
2024/01/26 02:23:23;;;;;;;27.80;10.02;;;8.70;99.90;;;;;;4956810;28;20507;-71
2024/01/26 02:25:48;;;;;;;18.58;8.15;;;8.70;99.90;;;;;;4959637;28;20035;-71
2024/01/26 02:28:14;;;;;;;21.27;9.68;;;8.70;99.90;;;;;;4965581;28;20043;-70
2024/01/26 02:30:40;;;;;;;21.08;8.25;;;8.70;99.90;;;;;;4962879;28;20038;-71
2024/01/26 02:33:06;;;;;;;23.23;9.45;;;8.70;99.90;;;;;;4959380;28;20549;-70
2024/01/26 02:35:31;;;;;;;18.13;9.30;;;8.70;99.90;;;;;;4957844;28;20031;-70
2024/01/26 02:37:57;;;;;;;21.40;9.13;;;8.70;99.90;;;;;;4960270;28;20035;-70
2024/01/26 02:40:23;;;;;;;21.52;9.60;;;8.70;99.90;;;;;;4961037;28;20061;-70
2024/01/26 02:42:48;;;;;;;21.95;8.85;;;8.70;99.90;;;;;;4958673;28;20061;-71
2024/01/26 02:45:14;;;;;;;17.33;8.10;;;8.70;99.90;;;;;;4976485;28;20035;-71
2024/01/26 02:47:40;;;;;;;14.43;7.85;;;8.80;99.90;;;;;;4960213;28;20506;-71
2024/01/26 02:50:06;;;;;;;16.90;8.52;;;8.80;99.90;;;;;;4958731;28;20027;-71
2024/01/26 02:52:32;;;;;;;19.92;7.95;;;8.80;99.90;;;;;;4958696;28;20041;-71
2024/01/26 02:55:00;;;;;;;14.68;7.80;;;8.80;99.90;;;;;;4954081;28;20035;-71
2024/01/26 02:57:26;;;;;;;13.93;7.75;;;8.90;99.90;;;;;;4956107;28;20421;-71
2024/01/26 02:59:52;;;;;;;18.42;7.22;;;8.90;99.90;;;;;;4963517;28;20027;-71
2024/01/26 03:02:17;;;;;;;22.75;8.07;;;8.90;99.90;;;;;;4957568;28;20027;-71
2024/01/26 03:04:43;;;;;;;11.77;6.43;;;9.00;99.90;;;;;;4955228;28;20035;-71
2024/01/26 03:07:09;;;;;;;13.65;6.90;;;9.00;99.90;;;;;;4956944;28;20106;-71
2024/01/26 03:09:35;;;;;;;12.10;5.45;;;9.00;99.90;;;;;;4958802;28;20103;-71
2024/01/26 03:12:00;;;;;;;16.77;7.05;;;9.10;99.90;;;;;;4967868;28;20039;-71
2024/01/26 03:14:26;;;;;;;19.23;6.57;;;9.10;99.90;;;;;;4957947;28;20495;-71
2024/01/26 03:16:52;;;;;;;15.80;5.68;;;9.10;99.90;;;;;;4957117;28;20047;-71
2024/01/26 03:19:17;;;;;;;10.93;5.43;;;9.10;99.90;;;;;;4958370;28;20028;-71
2024/01/26 03:21:44;;;;;;;11.27;4.43;;;9.10;99.90;;;;;;4968349;28;20038;-71
2024/01/26 03:24:10;;;;;;;9.32;4.93;;;9.20;99.90;;;;;;4975234;28;20031;-71
2024/01/26 03:26:37;;;;;;;11.32;6.07;;;9.20;99.90;;;;;;4963749;28;20030;-71
2024/01/26 03:29:04;;;;;;;10.98;4.38;;;9.30;99.90;;;;;;4965104;28;20484;-71
2024/01/26 03:31:30;;;;;;;8.55;3.45;;;9.30;99.90;;;;;;4961374;28;20332;-71
2024/01/26 03:33:56;;;;;;;8.73;3.53;;;9.30;99.90;;;;;;4961255;28;20084;-71
2024/01/26 03:36:22;;;;;;;4.40;2.60;;;9.30;99.90;;;;;;4957701;28;20027;-71
2024/01/26 03:38:47;;;;;;;4.22;2.15;;;9.30;99.90;;;;;;4962608;28;20137;-71
2024/01/26 03:41:13;;;;;;;4.55;2.38;;;9.40;99.90;;;;;;4954883;28;20495;-71
2024/01/26 03:43:39;;;;;;;5.00;2.50;;;9.40;99.90;;;;;;4955435;28;20023;-70
2024/01/26 03:46:08;;;;;;;5.00;2.38;;;9.50;99.90;;;;;;4944861;28;20027;-71
2024/01/26 03:48:34;;;;;;;5.25;2.88;;;9.50;99.90;;;;;;4957110;28;20039;-71
2024/01/26 03:51:00;;;;;;;6.82;2.08;;;9.50;99.90;;;;;;4963740;28;20560;-71
2024/01/26 03:53:26;;;;;;;9.27;2.80;;;9.60;99.90;;;;;;4960764;28;20027;-71
2024/01/26 03:55:55;;;;;;;6.18;2.47;;;9.60;99.90;;;;;;4961499;28;20115;-71
2024/01/26 03:58:21;;;;;;;5.45;3.00;;;9.60;99.90;;;;;;4960188;28;20034;-71
2024/01/26 04:00:47;;;;;;;4.68;2.15;;;9.60;99.90;;;;;;4961611;28;20388;-71
2024/01/26 04:03:13;;;;;;;3.28;1.83;;;9.60;99.90;;;;;;4957790;28;20024;-71
2024/01/26 04:05:39;;;;;;;6.22;2.13;;;9.60;99.90;;;;;;4963335;28;20045;-71
2024/01/26 04:08:05;;;;;;;12.60;2.90;;;9.50;99.90;;;;;;4954750;28;20077;-71
2024/01/26 04:10:31;;;;;;;7.60;3.03;;;9.60;99.90;;;;;;4961853;28;20379;-70
2024/01/26 04:12:57;;;;;;;4.93;2.58;;;9.50;99.90;;;;;;4953294;28;20038;-71
2024/01/26 04:15:23;;;;;;;3.30;2.05;;;9.60;99.90;;;;;;4955731;28;20042;-71
2024/01/26 04:17:49;;;;;;;3.33;1.67;;;9.60;99.90;;;;;;4964804;28;20050;-71
2024/01/26 04:20:15;;;;;;;3.53;1.70;;;9.60;99.90;;;;;;4955882;28;20027;-71
2024/01/26 04:22:42;;;;;;;3.20;1.80;;;9.60;99.90;;;;;;4964671;28;20064;-71
2024/01/26 04:25:09;;;;;;;2.80;1.38;;;9.60;99.90;;;;;;4964945;28;20031;-71
2024/01/26 04:27:35;;;;;;;3.03;1.45;;;9.60;99.90;;;;;;4957902;28;20031;-71
2024/01/26 04:30:03;;;;;;;2.55;1.42;;;9.60;99.90;;;;;;4961454;28;20450;-71
2024/01/26 04:32:29;;;;;;;4.05;1.85;;;9.60;99.90;;;;;;4942295;28;20125;-71
2024/01/26 04:34:55;;;;;;;2.63;1.55;;;9.60;99.90;;;;;;4963750;28;20054;-71
2024/01/26 04:37:21;;;;;;;5.97;1.73;;;9.60;99.90;;;;;;4964209;28;20413;-71
2024/01/26 04:39:47;;;;;;;2.45;1.30;;;9.60;99.90;;;;;;4972658;28;20112;-71
2024/01/26 04:42:13;;;;;;;11.52;1.85;;;9.70;99.90;;;;;;4958332;28;20023;-71
2024/01/26 04:44:41;;;;;;;3.15;1.52;;;9.60;99.90;;;;;;4954393;28;20054;-71
2024/01/26 04:47:06;;;;;;;3.15;1.90;;;9.60;99.90;;;;;;4955508;28;20106;-71
2024/01/26 04:49:32;;;;;;;3.45;1.50;;;9.60;99.90;;;;;;4961770;28;20110;-71
2024/01/26 04:51:58;;;;;;;2.83;1.30;;;9.60;99.90;;;;;;4956377;28;20045;-71
2024/01/26 04:54:24;;;;;;;4.63;1.85;;;9.50;99.90;;;;;;4967233;28;20418;-71
2024/01/26 04:56:49;;;;;;;5.70;1.65;;;9.50;99.90;;;;;;4955705;28;20105;-71
2024/01/26 04:59:15;;;;;;;5.05;1.25;;;9.50;99.90;;;;;;4960581;28;20114;-71
2024/01/26 05:01:41;;;;;;;11.52;2.13;;;9.50;99.90;;;;;;4953118;28;20030;-71
2024/01/26 05:04:06;;;;;;;4.03;1.23;;;9.50;99.90;;;;;;4961261;28;20027;-71
2024/01/26 05:06:32;;;;;;;3.08;1.50;;;9.50;99.90;;;;;;4972575;28;20043;-71
2024/01/26 05:08:58;;;;;;;9.82;1.88;;;9.40;99.90;;;;;;4966062;28;20035;-73
2024/01/26 05:11:25;;;;;;;4.10;1.63;;;9.40;99.90;;;;;;4960990;28;20034;-71
2024/01/26 05:13:51;;;;;;;2.55;1.00;;;9.40;99.90;;;;;;4979394;28;20545;-71
2024/01/26 05:16:17;;;;;;;4.18;2.00;;;9.40;99.90;;;;;;4958231;28;20061;-71
2024/01/26 05:18:42;;;;;;;5.20;2.35;;;9.40;99.90;;;;;;4948725;28;20035;-71
2024/01/26 05:21:08;;;;;;;5.65;2.20;;;9.40;99.90;;;;;;4960206;28;20027;-71
2024/01/26 05:23:34;;;;;;;2.75;1.60;;;9.40;99.90;;;;;;4959250;28;20341;-71
2024/01/26 05:26:00;;;;;;;5.50;2.25;;;9.40;99.90;;;;;;4960690;28;20101;-71
2024/01/26 05:28:26;;;;;;;6.43;2.85;;;9.40;99.90;;;;;;4956987;28;20148;-71
2024/01/26 05:30:52;;;;;;;4.25;2.40;;;9.40;99.90;;;;;;4959374;28;20062;-71
2024/01/26 05:33:18;;;;;;;4.85;2.42;;;9.30;99.90;;;;;;4962452;28;20031;-71
2024/01/26 05:35:45;;;;;;;6.68;3.20;;;9.30;99.90;;;;;;4959828;28;20035;-71
2024/01/26 05:38:11;;;;;;;7.13;2.85;;;9.40;99.90;;;;;;4964335;28;20027;-71
2024/01/26 05:40:37;;;;;;;5.88;3.10;;;9.40;99.90;;;;;;4969087;28;20030;-71
2024/01/26 05:43:03;;;;;;;5.35;2.70;;;9.40;99.90;;;;;;4962136;28;20127;-71
2024/01/26 05:45:28;;;;;;;6.72;2.70;;;9.40;99.90;;;;;;4962271;28;20058;-71
2024/01/26 05:47:55;;;;;;;7.20;3.70;;;9.30;99.90;;;;;;4960716;28;20078;-71
2024/01/26 05:50:21;;;;;;;10.23;3.58;;;9.30;99.90;;;;;;4962229;28;20034;-71
2024/01/26 05:52:48;;;;;;;5.97;2.83;;;9.40;99.90;;;;;;4963512;28;20043;-71
2024/01/26 05:55:14;;;;;;;6.70;3.78;;;9.40;99.90;;;;;;4964029;28;20058;-70
2024/01/26 05:57:40;;;;;;;6.32;2.97;;;9.40;99.90;;;;;;4958739;28;20507;-71
2024/01/26 06:00:07;;;;;;;10.48;2.20;;;9.40;99.90;;;;;;4962754;28;20030;-71
2024/01/26 06:02:33;;;;;;;6.78;4.15;;;9.30;99.90;;;;;;4959186;28;20525;-72
2024/01/26 06:04:59;;;;;;;17.77;3.50;;;9.30;99.90;;;;;;4961140;28;20041;-72
2024/01/26 06:07:25;;;;;;;4.60;2.50;;;9.40;99.90;;;;;;5009352;28;20491;-71
2024/01/26 06:09:50;;;;;;;4.38;2.25;;;9.30;99.90;;;;;;4968321;28;20058;-71
2024/01/26 06:12:16;;;;;;;5.85;1.98;;;9.40;99.90;;;;;;4956727;28;20031;-70
2024/01/26 06:14:42;;;;;;;4.85;2.53;;;9.30;99.90;;;;;;4964271;28;20471;-71
2024/01/26 06:17:07;;;;;;;4.57;2.33;;;9.40;99.90;;;;;;4956167;28;20035;-71
2024/01/26 06:19:33;;;;;;;7.95;2.10;;;9.40;99.90;;;;;;4963954;28;20043;-71
2024/01/26 06:21:59;;;;;;;2.90;1.75;;;9.40;99.90;;;;;;4961148;28;20019;-71
2024/01/26 06:24:27;;;;;;;10.13;2.58;;;9.40;99.90;;;;;;4966522;28;20386;-71
2024/01/26 06:26:52;;;;;;;4.20;2.15;;;9.40;99.90;;;;;;4955967;28;20438;-71
2024/01/26 06:29:18;;;;;;;4.05;2.15;;;9.40;99.90;;;;;;4958721;28;20043;-71
2024/01/26 06:31:44;;;;;;;3.90;2.35;;;9.40;99.90;;;;;;4940990;28;20085;-71
2024/01/26 06:34:09;;;;;;;3.05;1.77;;;9.40;99.90;;;;;;4953825;28;20376;-71
2024/01/26 06:36:35;;;;;;;3.47;1.98;;;9.40;99.90;;;;;;4952614;28;20074;-71
2024/01/26 06:39:01;;;;;;;3.60;1.55;;;9.40;99.90;;;;;;4959614;28;20037;-71
2024/01/26 06:41:27;;;;;;;3.05;1.40;;;9.50;99.90;;;;;;4953103;28;20034;-71
2024/01/26 06:43:53;;;;;;;3.15;1.90;;;9.40;99.90;;;;;;4959551;28;20519;-71
2024/01/26 06:46:22;;;;;;;3.40;1.80;;;9.50;99.90;;;;;;4959705;28;20035;-71
2024/01/26 06:48:51;;;;;;;2.65;1.60;;;9.50;99.90;;;;;;4958810;28;20034;-71
2024/01/26 06:51:17;;;;;;;1.98;1.23;;;9.50;99.90;;;;;;4963801;28;20023;-71
2024/01/26 06:53:43;;;;;;;3.88;1.88;;;9.40;99.90;;;;;;4964644;28;20036;-69
2024/01/26 06:56:08;;;;;;;3.65;2.28;;;9.40;99.90;;;;;;4962229;28;20053;-69
2024/01/26 06:58:34;;;;;;;4.75;1.67;;;9.40;99.90;;;;;;4973241;28;20042;-69
2024/01/26 07:01:00;;;;;;;3.63;1.67;;;9.40;99.90;;;;;;4965171;28;20025;-69
2024/01/26 07:03:27;;;;;;;3.05;1.73;;;9.40;99.90;;;;;;4957844;28;20016;-69
2024/01/26 07:05:53;;;;;;;4.88;1.40;;;9.50;99.90;;;;;;4954363;28;20031;-69
2024/01/26 07:08:18;;;;;;;3.53;1.45;;;9.50;99.90;;;;;;4959440;28;20514;-69
2024/01/26 07:10:44;;;;;;;2.88;1.40;;;9.50;99.90;;;;;;4952354;28;20032;-70
2024/01/26 07:13:10;;;;;;;6.85;1.70;;;9.50;99.90;;;;;;4941614;28;20640;-70
2024/01/26 07:15:36;;;;;;;3.28;1.88;;;9.50;99.90;;;;;;4952476;28;20098;-70
2024/01/26 07:18:02;;;;;;;4.47;1.20;;;9.50;99.90;;;;;;4965605;28;20084;-68
2024/01/26 07:20:28;;;;;;;2.55;1.58;;;9.50;99.90;;;;;;4952116;28;20019;-71
2024/01/26 07:22:54;;;;;;;3.88;1.70;;;9.40;99.90;;;;;;4958214;28;20039;-71
2024/01/26 07:25:20;;;;;;;3.50;2.00;;;9.50;99.90;;;;;;4953752;28;20118;-71
2024/01/26 07:27:49;;;;;;;4.22;1.83;;;9.50;99.90;;;;;;4957913;28;20498;-71
2024/01/26 07:30:17;;;;;;;5.90;1.73;;;9.50;99.90;;;;;;4952007;28;20426;-70
2024/01/26 07:32:43;;;;;;;3.25;1.77;;;9.50;99.90;;;;;;4958869;28;20035;-70
2024/01/26 07:35:09;;;;;;;4.90;2.30;;;9.50;99.90;;;;;;4960192;28;20097;-69
2024/01/26 07:37:35;;;;;;;4.03;1.90;;;9.50;99.90;;;;;;4955081;28;20035;-69
2024/01/26 07:40:04;;;;;;;6.13;2.17;;;9.60;99.90;;;;;;4953239;28;20110;-69
2024/01/26 07:42:30;;;;;;;3.08;2.10;;;9.60;99.90;;;;;;4953761;28;20109;-69
2024/01/26 07:44:56;;;;;;;4.53;2.08;;;9.60;99.90;;;;;;4954106;28;20027;-69
2024/01/26 07:47:22;;;;;;;6.47;2.60;;;9.60;99.90;;;;;;4951453;28;20130;-69
2024/01/26 07:49:48;;;;;;;8.40;1.52;;;9.60;99.90;;;;;;4956808;28;20031;-69
2024/01/26 07:52:15;;;;;;;5.13;2.28;;;9.60;99.90;;;;;;4950621;28;20042;-69
2024/01/26 07:54:41;;;;;;;2.92;1.80;;;9.70;99.90;;;;;;4950318;28;20035;-69
2024/01/26 07:57:07;;;;;;;3.00;1.50;;;9.70;99.90;;;;;;4949026;28;20085;-69
2024/01/26 07:59:33;;;;;;;5.43;2.10;;;9.70;99.90;;;;;;4952253;28;20092;-69
2024/01/26 08:01:58;;;;;;;7.22;2.40;;;9.80;99.90;;;;;;4958417;28;20687;-69
2024/01/26 08:04:24;;;;;;;3.08;1.58;;;9.80;99.90;;;;;;4951551;28;20392;-70
2024/01/26 08:06:50;;;;;;;4.95;1.65;;;9.90;99.90;;;;;;4951604;28;20038;-70
2024/01/26 08:09:15;;;;;;;6.90;2.35;;;9.90;99.90;;;;;;4951057;28;20116;-69
2024/01/26 08:11:41;;;;;;;2.20;1.45;;;9.90;99.90;;;;;;4953023;28;20092;-69
2024/01/26 08:14:07;;;;;;;3.78;1.55;;;9.90;99.90;;;;;;4960884;28;20090;-68
2024/01/26 08:16:34;;;;;;;5.05;1.80;;;10.00;99.90;;;;;;4955905;28;20761;-69
2024/01/26 08:18:59;;;;;;;2.45;1.10;;;9.90;99.90;;;;;;4961636;28;20038;-69
2024/01/26 08:21:25;;;;;;;3.47;1.80;;;10.00;99.90;;;;;;4955162;28;20020;-69
2024/01/26 08:23:51;;;;;;;14.48;2.17;;;10.00;99.90;;;;;;4983525;28;20031;-69
2024/01/26 08:26:18;;;;;;;3.42;1.63;;;10.00;99.90;;;;;;4949581;28;20486;-69
2024/01/26 08:28:44;;;;;;;7.80;2.03;;;10.00;99.90;;;;;;4963412;28;20034;-69
2024/01/26 08:31:10;;;;;;;3.28;1.63;;;10.00;99.90;;;;;;4960558;28;20121;-69
2024/01/26 08:33:36;;;;;;;4.13;2.00;;;10.10;99.90;;;;;;4950571;28;20125;-69
2024/01/26 08:36:02;;;;;;;10.73;2.17;;;10.10;99.90;;;;;;4951413;28;20070;-69
2024/01/26 08:38:28;;;;;;;2.70;1.52;;;10.10;99.90;;;;;;4958685;28;20027;-69
2024/01/26 08:40:53;;;;;;;5.07;1.98;;;10.10;99.90;;;;;;4961149;28;20521;-69
2024/01/26 08:43:19;;;;;;;4.13;1.88;;;10.10;99.90;;;;;;4957002;28;20032;-69
2024/01/26 08:45:45;;;;;;;3.30;1.65;;;10.20;99.90;;;;;;4951095;28;20463;-69
2024/01/26 08:48:13;;;;;;;2.08;1.42;;;10.10;99.90;;;;;;4950950;28;20035;-69
2024/01/26 08:50:40;;;;;;;5.72;1.60;;;10.20;99.90;;;;;;4951387;28;20035;-69
2024/01/26 08:53:06;;;;;;;3.03;1.77;;;10.20;99.90;;;;;;4950247;28;20038;-69
2024/01/26 08:55:33;;;;;;;9.10;1.50;;;10.10;99.90;;;;;;4950958;28;20047;-69
2024/01/26 08:57:58;;;;;;;3.70;2.05;;;10.10;99.90;;;;;;4958334;28;20039;-69
2024/01/26 09:00:24;;;;;;;3.30;1.75;;;10.00;99.90;;;;;;4950881;28;20034;-69
2024/01/26 09:02:50;;;;;;;5.18;1.65;;;10.00;99.90;;;;;;4952846;28;20027;-69
2024/01/26 09:05:16;;;;;;;3.50;1.38;;;10.00;99.90;;;;;;4951041;28;20045;-69
2024/01/26 09:07:41;;;;;;;3.17;1.70;;;10.10;99.90;;;;;;4950566;28;20039;-69
2024/01/26 09:10:08;;;;;;;4.38;1.73;;;10.10;99.90;;;;;;4959975;28;20549;-68
2024/01/26 09:12:33;;;;;;;3.03;1.73;;;10.10;99.90;;;;;;4963741;28;20033;-70
2024/01/26 09:14:59;;;;;;;3.00;1.67;;;10.10;99.90;;;;;;4949770;28;20039;-69
2024/01/26 09:17:25;;;;;;;8.80;1.75;;;10.00;99.90;;;;;;4949318;28;20043;-69
2024/01/26 09:19:52;;;;;;;5.03;2.45;;;10.00;99.90;;;;;;4950828;28;20066;-69
2024/01/26 09:22:18;;;;;;;5.82;1.73;;;10.00;99.90;;;;;;4949797;28;20125;-69
2024/01/26 09:24:44;;;;;;;2.92;1.27;;;10.00;99.90;;;;;;4949606;28;20031;-69
2024/01/26 09:27:10;;;;;;;2.45;1.23;;;10.10;99.90;;;;;;4950250;28;20031;-69
2024/01/26 09:29:36;;;;;;;3.78;1.30;;;10.10;99.90;;;;;;4951158;28;20031;-70
2024/01/26 09:32:01;;;;;;;2.40;1.17;;;10.10;99.90;;;;;;4950393;28;20410;-70
2024/01/26 09:34:27;;;;;;;3.60;1.35;;;10.10;99.90;;;;;;4956900;28;20035;-70
2024/01/26 09:36:53;;;;;;;3.85;1.50;;;10.20;99.90;;;;;;4949252;28;20109;-70
2024/01/26 09:39:19;;;;;;;3.55;1.30;;;10.20;99.90;;;;;;4950109;28;20041;-70
2024/01/26 09:41:44;;;;;;;2.03;1.25;;;10.20;99.90;;;;;;4950218;28;20549;-70
2024/01/26 09:44:10;;;;;;;3.28;1.27;;;10.20;99.90;;;;;;4979600;28;20055;-70
2024/01/26 09:46:37;;;;;;;9.00;1.88;;;10.10;99.90;;;;;;4961542;28;20035;-70
2024/01/26 09:49:06;;;;;;;5.03;1.35;;;10.20;99.90;;;;;;4953278;28;20047;-70
2024/01/26 09:51:33;;;;;;;2.65;1.42;;;10.10;99.90;;;;;;4964741;28;20391;-70
2024/01/26 09:54:00;;;;;;;2.72;1.40;;;10.10;99.90;;;;;;4964606;28;20040;-70
2024/01/26 09:56:26;;;;;;;2.53;1.40;;;10.10;99.90;;;;;;4964536;28;20110;-70
2024/01/26 09:58:53;;;;;;;3.20;1.40;;;10.00;99.90;;;;;;4956889;28;20442;-70
2024/01/26 10:01:23;;;;;;;2.50;1.38;;;10.10;99.90;;;;;;4949749;28;20134;-70
2024/01/26 10:03:52;;;;;;;3.13;1.30;;;10.10;99.90;;;;;;4949803;28;20031;-70
2024/01/26 10:06:19;;;;;;;3.05;1.10;;;10.10;99.90;;;;;;4956526;28;20444;-70
2024/01/26 10:08:47;;;;;;;2.55;1.58;;;10.10;99.90;;;;;;4944005;28;20046;-70
2024/01/26 10:11:13;;;;;;;13.00;2.25;;;10.20;99.90;;;;;;4950718;28;20042;-70
2024/01/26 10:13:38;;;;;;;3.08;1.25;;;10.20;99.90;;;;;;4957427;28;20035;-69
2024/01/26 10:16:16;;;;;;;4.45;1.83;;;10.20;99.90;;;;;;4949574;28;20435;-69
2024/01/26 10:18:43;;;;;;;1.17;0.77;;;10.30;99.90;;;;;;4953094;28;20126;-69
2024/01/26 10:21:15;;;;;;;4.60;1.30;;;10.30;99.90;;;;;;4953233;28;20623;-69
2024/01/26 10:23:42;;;;;;;2.00;1.17;;;10.30;99.90;;;;;;4961445;28;20111;-68
2024/01/26 10:26:11;;;;;;;2.92;1.10;;;10.40;99.90;;;;;;4952873;28;20535;-70
2024/01/26 10:28:37;;;;;;;3.08;1.05;;;10.40;99.90;;;;;;4953638;28;20039;-69
2024/01/26 10:31:04;;;;;;;1.33;1.05;;;10.40;99.90;;;;;;4952144;28;20023;-69
2024/01/26 10:33:33;;;;;;;1.92;1.08;;;10.50;99.90;;;;;;4953240;28;20027;-69
2024/01/26 10:36:00;;;;;;;2.63;1.08;;;10.50;99.90;;;;;;4967453;28;20498;-69
2024/01/26 10:38:30;;;;;;;1.17;0.70;;;10.50;99.90;;;;;;4968114;28;20027;-69
2024/01/26 10:41:02;;;;;;;0.88;0.50;;;10.60;99.90;;;;;;4966700;28;20061;-70
2024/01/26 10:43:29;;;;;;;3.53;1.05;;;10.70;99.90;;;;;;4952554;28;20536;-70
2024/01/26 10:45:57;;;;;;;4.72;1.05;;;10.70;99.90;;;;;;4961212;28;20042;-69
2024/01/26 10:48:24;;;;;;;2.05;0.80;;;10.70;99.90;;;;;;4966566;28;20035;-69
2024/01/26 10:50:50;;;;;;;3.53;1.30;;;10.70;99.90;;;;;;4951289;28;20031;-69
2024/01/26 10:53:19;;;;;;;2.03;0.93;;;10.80;99.90;;;;;;4959251;28;20039;-70
2024/01/26 10:55:48;;;;;;;3.30;1.00;;;10.70;99.90;;;;;;4958232;28;20406;-70
2024/01/26 10:58:14;;;;;;;3.15;0.93;;;10.80;99.90;;;;;;4969506;28;20042;-69
2024/01/26 11:00:40;;;;;;;1.35;0.60;;;10.80;99.90;;;;;;4955243;28;20031;-70
2024/01/26 11:03:05;;;;;;;3.05;0.98;;;10.80;99.90;;;;;;4964135;28;20568;-70
2024/01/26 11:05:32;;;;;;;1.08;0.60;;;10.80;99.90;;;;;;4955943;28;20027;-70
2024/01/26 11:08:01;;;;;;;1.38;0.85;;;10.90;99.90;;;;;;4989406;28;20041;-70
2024/01/26 11:10:29;;;;;;;1.23;0.60;;;11.00;99.90;;;;;;4950879;28;20033;-70
2024/01/26 11:13:03;;;;;;;1.40;1.02;;;11.00;99.90;;;;;;4957737;28;20463;-70
2024/01/26 11:15:29;;;;;;;0.85;0.75;;;11.00;99.90;;;;;;4952292;28;20035;-70
2024/01/26 11:17:57;;;;;;;0.82;0.50;;;11.10;99.90;;;;;;4952787;28;20472;-70
2024/01/26 11:20:31;;;;;;;2.00;0.77;;;11.20;99.90;;;;;;4952300;28;20498;-70
2024/01/26 11:23:15;;;;;;;2.78;0.60;;;11.40;99.90;;;;;;4965920;28;20057;-70
2024/01/26 11:25:44;;;;;;;2.10;0.75;;;11.50;99.90;;;;;;4962466;28;20395;-70
2024/01/26 11:28:14;;;;;;;1.38;0.80;;;11.50;99.90;;;;;;4956386;28;20513;-70
2024/01/26 11:30:40;;;;;;;0.95;0.65;;;11.50;99.90;;;;;;4962306;28;20173;-70
2024/01/26 11:33:17;;;;;;;1.75;1.02;;;11.50;99.90;;;;;;4964166;28;20042;-70
2024/01/26 11:35:43;;;;;;;1.17;0.50;;;11.60;99.90;;;;;;4957432;28;20034;-71
2024/01/26 11:38:09;;;;;;;1.27;0.40;;;11.50;99.90;;;;;;4954931;28;20047;-71
2024/01/26 11:40:35;;;;;;;1.10;0.40;;;11.60;99.90;;;;;;4952898;28;20496;-71
2024/01/26 11:43:01;;;;;;;0.77;0.47;;;11.70;99.90;;;;;;4964786;28;20034;-71
2024/01/26 11:45:46;;;;;;;0.60;0.45;;;11.60;99.90;;;;;;4970819;28;20038;-71
2024/01/26 11:48:14;;;;;;;1.10;0.60;;;11.60;99.90;;;;;;4966824;28;20058;-71
2024/01/26 11:50:46;;;;;;;0.98;0.50;;;11.60;99.90;;;;;;4952293;28;20042;-71
2024/01/26 11:53:15;;;;;;;1.48;0.30;;;11.70;99.90;;;;;;4951841;28;20030;-71
2024/01/26 11:55:42;;;;;;;1.02;0.50;;;11.70;99.90;;;;;;4957222;28;20046;-71
2024/01/26 11:58:09;;;;;;;1.67;0.70;;;11.80;99.90;;;;;;4970172;28;20104;-71
2024/01/26 12:00:35;;;;;;;1.52;0.43;;;11.80;99.90;;;;;;4934644;28;20031;-71
2024/01/26 12:03:09;;;;;;;0.45;0.20;;;11.90;99.90;;;;;;4966115;28;20103;-71
2024/01/26 12:05:36;;;;;;;0.30;0.30;;;11.90;99.90;;;;;;4957505;28;20054;-71
2024/01/26 12:08:05;;;;;;;0.60;0.40;;;12.00;99.90;;;;;;4950910;28;20097;-71
2024/01/26 12:10:33;;;;;;;1.52;0.55;;;12.00;99.90;;;;;;4958027;28;20035;-71
2024/01/26 12:12:59;;;;;;;0.98;0.57;;;11.90;99.90;;;;;;4958399;28;20054;-72
2024/01/26 12:15:31;;;;;;;1.50;0.70;;;12.00;99.90;;;;;;4951734;28;20077;-71
2024/01/26 12:18:10;;;;;;;1.33;0.57;;;12.00;99.90;;;;;;4964921;28;20027;-71
2024/01/26 12:20:36;;;;;;;0.22;0.22;;;12.00;99.90;;;;;;4962512;28;20043;-71
2024/01/26 12:23:02;;;;;;;0.35;0.30;;;12.00;99.90;;;;;;4954791;28;20507;-71
2024/01/26 12:25:28;;;;;;;1.15;0.40;;;11.90;99.90;;;;;;4950825;28;20037;-71
2024/01/26 12:27:55;;;;;;;0.80;0.65;;;12.00;99.90;;;;;;4948988;28;20056;-70
2024/01/26 12:30:21;;;;;;;0.93;0.55;;;12.10;99.90;;;;;;4958094;28;20548;-70
2024/01/26 12:32:46;;;;;;;0.77;0.20;;;12.10;99.90;;;;;;4963012;28;20035;-70
2024/01/26 12:35:12;;;;;;;1.17;0.50;;;12.10;99.90;;;;;;4953999;28;20031;-59
2024/01/26 12:37:38;;;;;;;1.02;0.55;;;12.20;99.90;;;;;;4951173;28;20028;-59
2024/01/26 12:40:06;;;;;;;2.03;0.52;;;12.20;99.90;;;;;;4951445;28;20074;-72
2024/01/26 12:42:32;;;;;;;1.75;0.60;;;12.30;99.90;;;;;;4950073;28;20367;-71
2024/01/26 12:44:58;;;;;;;0.70;0.45;;;12.20;99.90;;;;;;4936199;28;20035;-72
2024/01/26 12:47:24;;;;;;;0.30;0.30;;;12.10;99.90;;;;;;4950877;28;20039;-71